Thursday, November 27, 2014
13:15 UTC
  |  Log In   |  Register Free
Airport Search:

Seattle-Tacoma International Airport
(KSEA)

FAA data valid effective November 13, 2014 - January 08, 2015 (unless otherwise noted).

 
 
 
 
 
 
 
 
 
 
 
 
 
 

Current Aviation Weather for Seattle-Tacoma International Airport (KSEA)

The most recent METAR observation for KSEA was updated at: 1220
METAR Summary (Translated METAR)
KSEA
271153Z 19011G21KT 10SM OVC028 12/08 A2986 RMK AO2 PK WND 18028/1104 SLP118 60001 70001 T01170078 10144 20117 58001
KRNT
271153Z AUTO 16011KT 10SM OVC034 13/08 A2986 RMK AO2 PK WND 17026/1059 RAB33E45 SLP115 P0000 60000 70001 T01330083 10156 20122 58002
(4.6 nm NE from KSEA)
KBFI
271253Z 18009G16KT 10SM OVC034 13/08 A2985 RMK AO2 SLP108 T01330083
(4.9 nm NE from KSEA)
TAF Summary (Translated TAF)
KSEA
271130Z 2712/2818 18015G30KT P6SM -RA SCT025 OVC035 FM272000 20015G25KT P6SM -RA SCT030 BKN040 BKN080 FM281200 20014KT P6SM -RA OVC020
KBFI
(4.9 nm NE from KSEA)
271130Z 2712/2812 18012G25KT P6SM -RA SCT025 OVC035 FM272000 20015G25KT P6SM -RA SCT030 BKN040 BKN080
  Airport Weather Conditions for KSEA

 Current Weather at SEA
53° F
Overcast
South winds at 12.7 mph
SEA NOAA Radar

Pressure: 29.86 in
Humidity: 77%
Wind: from the South at 12.7 gusting to 24.2 MPH (11 gusting to 21 KT)
Dew Point: 46.0°F
Visibility: 10.00 mi


Airport Weather Forecast for KSEA

Translated METAR and TAF for KSEA
Translated METAR for KSEA (1310 UTC 27 November 2014)
found at http://aviationweather.gov/adds/metars/
 
METAR text: KSEA 271253Z 19008KT 10SM OVC028 12/08 A2986 RMK AO2 SLP116 T01170083
Conditions at: KSEA (SEATTLE/METRO , WA, US) observed 1253 UTC 27 November 2014
Temperature: 11.7°C (53°F)
Dewpoint: 8.3°C (47°F) [RH = 80%]
Pressure (altimeter): 29.86 inches Hg (1011.3 mb)
[Sea-level pressure: 1011.6 mb]
Winds: from the S (190 degrees) at 9 MPH (8 knots; 4.2 m/s)
Visibility: 10 or more miles (16+ km)
Ceiling: 2800 feet AGL
Clouds: overcast cloud deck at 2800 feet AGL
Weather: no significant weather observed at this time
Translated TAF for KSEA
Forecast for: KSEA (SEATTLE/METRO , WA, US)
TAF Text: KSEA 271253Z 2713/2818 19011G21KT P6SM OVC028
Forecast period: 1300 to 2000 UTC 27 November 2014
Forecast type: FROM: standard forecast or significant change
Winds: from the S (190 degrees) at 13 MPH (11 knots; 5.7 m/s)
gusting to 24 MPH (21 knots; 10.9 m/s)
Visibility: 6 or more miles (10+ km)
Ceiling: 2800 feet AGL
Clouds: overcast cloud deck at 2800 feet AGL
Weather: no significant weather forecast for this period
TAF Text: FM272000 20015G25KT P6SM -RA SCT030 BKN040 BKN080
Forecast period: 2000 UTC 27 November 2014 to 1200 UTC 28 November 2014
Forecast type: FROM: standard forecast or significant change
Winds: from the SSW (200 degrees) at 17 MPH (15 knots; 7.8 m/s)
gusting to 29 MPH (25 knots; 13.0 m/s)
Visibility: 6 or more miles (10+ km)
Ceiling: 4000 feet AGL
Clouds: scattered clouds at 3000 feet AGL
broken clouds at 4000 feet AGL
broken clouds at 8000 feet AGL
Weather: -RA  (light rain)
TAF Text: FM281200 20014KT P6SM -RA OVC020
Forecast period: 1200 to 1800 UTC 28 November 2014
Forecast type: FROM: standard forecast or significant change
Winds: from the SSW (200 degrees) at 16 MPH (14 knots; 7.3 m/s)
Visibility: 6 or more miles (10+ km)
Ceiling: 2000 feet AGL
Clouds: overcast cloud deck at 2000 feet AGL
Weather: -RA  (light rain)

Find All Airport Services Find A Hotel Find A Rental Car Find A Golf Course Find A Restaurant $100 Hamburger



FBO's on the Field
FBO Company Facility Photos Services Transportation Aviation Fuel Prices: Prices include tax
Catering Weather Repair Courtesy Rental Type 100LL JetA JetA+ MOGAS 8087
 
Aircraft Service Intl.

This FBO has not yet been rated
FS:Avfuel
Last Updated: Nov-13
Login to update fuel prices
SS:
Contact Aircraft Service Intl.More FBO Information
 
Add another FBO Facility Photos Catering Weather Repair Courtesy Rental Type 100LL JetA JetA+ MOGAS 8087
Services Transportation Aviation Fuel Prices: Prices include tax


model-print
model-print
model-print
model-print